Time;durP1;ratioP1;P1;durP2;ratioP2;P2;SDS_P1;SDS_P2;PMS_P1;PMS_P2;Temp;Humidity;BMP_temperature;BMP_pressure;BME280_temperature;BME280_humidity;BME280_pressure;Samples;Min_cycle;Max_cycle;Signal;HPM_P1;HPM_P2
2024/02/19 00:02:00;;;;;;;41.28;4.10;;;9.50;99.90;;;;;;5007002;28;20045;-75
2024/02/19 00:04:26;;;;;;;41.22;4.10;;;9.50;99.90;;;;;;4998833;28;20128;-75
2024/02/19 00:06:52;;;;;;;44.13;4.47;;;9.50;99.90;;;;;;4995519;28;20484;-75
2024/02/19 00:09:19;;;;;;;33.72;4.00;;;9.50;99.90;;;;;;5001342;28;20015;-75
2024/02/19 00:11:46;;;;;;;28.85;4.22;;;9.50;99.90;;;;;;4989756;28;20507;-76
2024/02/19 00:14:12;;;;;;;36.75;5.03;;;9.50;99.90;;;;;;4964423;28;20553;-75
2024/02/19 00:16:38;;;;;;;36.45;3.65;;;9.50;99.90;;;;;;4979572;28;20058;-75
2024/02/19 00:19:06;;;;;;;36.88;3.28;;;9.50;99.90;;;;;;5003092;28;20388;-74
2024/02/19 00:21:32;;;;;;;34.42;4.20;;;9.50;99.90;;;;;;4982319;28;20029;-75
2024/02/19 00:23:58;;;;;;;34.95;4.07;;;9.50;99.90;;;;;;4994904;28;20389;-75
2024/02/19 00:26:24;;;;;;;31.55;3.90;;;9.50;99.90;;;;;;4983150;28;20180;-75
2024/02/19 00:28:50;;;;;;;28.40;3.65;;;9.40;99.90;;;;;;5007130;28;20026;-75
2024/02/19 00:31:19;;;;;;;32.65;4.03;;;9.50;99.90;;;;;;4981441;28;20029;-75
2024/02/19 00:33:45;;;;;;;37.20;4.30;;;9.40;99.90;;;;;;4996082;28;20018;-75
2024/02/19 00:36:10;;;;;;;39.67;4.20;;;9.50;99.90;;;;;;4984879;28;20053;-75
2024/02/19 00:38:36;;;;;;;29.38;3.95;;;9.50;99.90;;;;;;4982481;28;20022;-75
2024/02/19 00:41:03;;;;;;;35.45;3.83;;;9.40;99.90;;;;;;4994365;28;20018;-75
2024/02/19 00:43:30;;;;;;;40.20;3.35;;;9.50;99.90;;;;;;4982216;28;20014;-75
2024/02/19 00:45:56;;;;;;;34.60;3.60;;;9.50;99.90;;;;;;4999418;28;20368;-75
2024/02/19 00:48:22;;;;;;;46.80;4.88;;;9.40;99.90;;;;;;4994923;28;20607;-75
2024/02/19 00:50:48;;;;;;;33.10;3.88;;;9.50;99.90;;;;;;4998968;28;20038;-75
2024/02/19 00:53:14;;;;;;;36.58;4.18;;;9.40;99.90;;;;;;5002906;28;20018;-75
2024/02/19 00:55:39;;;;;;;34.30;3.75;;;9.40;99.90;;;;;;4977102;28;20040;-75
2024/02/19 00:58:05;;;;;;;31.15;3.28;;;9.40;99.90;;;;;;4995180;28;20412;-75
2024/02/19 01:00:31;;;;;;;33.70;3.70;;;9.50;99.90;;;;;;5003057;28;20109;-75
2024/02/19 01:02:58;;;;;;;31.23;4.03;;;9.50;99.90;;;;;;4987229;28;20373;-75
2024/02/19 01:05:25;;;;;;;31.88;4.07;;;9.50;99.90;;;;;;4996488;28;20331;-75
2024/02/19 01:07:51;;;;;;;32.75;4.15;;;9.50;99.90;;;;;;4998744;28;20030;-75
2024/02/19 01:10:17;;;;;;;54.45;4.95;;;9.50;99.90;;;;;;5002135;28;20059;-75
2024/02/19 01:12:42;;;;;;;33.28;4.00;;;9.50;99.90;;;;;;4978273;28;20672;-75
2024/02/19 01:15:09;;;;;;;27.73;5.22;;;9.50;99.90;;;;;;4993843;28;20053;-75
2024/02/19 01:17:35;;;;;;;39.58;5.30;;;9.50;99.90;;;;;;4980960;28;20025;-75
2024/02/19 01:20:01;;;;;;;33.42;5.03;;;9.40;99.90;;;;;;4978176;28;20495;-75
2024/02/19 01:22:28;;;;;;;31.70;5.03;;;9.50;99.90;;;;;;4984587;28;20026;-75
2024/02/19 01:24:54;;;;;;;24.85;4.05;;;9.40;99.90;;;;;;4980205;28;20108;-74
2024/02/19 01:27:22;;;;;;;34.47;5.22;;;9.40;99.90;;;;;;4994428;28;20392;-75
2024/02/19 01:29:48;;;;;;;31.80;4.70;;;9.40;99.90;;;;;;4999313;28;20349;-75
2024/02/19 01:32:14;;;;;;;42.88;4.82;;;9.40;99.90;;;;;;5002577;28;20026;-75
2024/02/19 01:34:40;;;;;;;33.15;4.47;;;9.40;99.90;;;;;;4970583;28;20081;-75
2024/02/19 01:37:06;;;;;;;38.50;4.55;;;9.50;99.90;;;;;;4988490;28;20428;-76
2024/02/19 01:39:32;;;;;;;34.65;4.95;;;9.40;99.90;;;;;;5001583;28;20480;-76
2024/02/19 01:41:59;;;;;;;51.22;5.07;;;9.40;99.90;;;;;;4981292;28;20395;-75
2024/02/19 01:44:25;;;;;;;41.53;4.43;;;9.50;99.90;;;;;;4975761;28;20051;-75
2024/02/19 01:46:51;;;;;;;43.45;5.05;;;9.40;99.90;;;;;;4988759;28;20054;-75
2024/02/19 01:49:17;;;;;;;40.22;4.90;;;9.40;99.90;;;;;;4980749;28;20505;-75
2024/02/19 01:51:43;;;;;;;33.85;4.03;;;9.50;99.90;;;;;;4990593;28;20656;-75
2024/02/19 01:54:11;;;;;;;34.67;4.35;;;9.40;99.90;;;;;;4987737;28;20027;-75
2024/02/19 01:56:39;;;;;;;45.85;5.00;;;9.50;99.90;;;;;;5001483;28;20037;-75
2024/02/19 01:59:07;;;;;;;27.55;4.28;;;9.50;99.90;;;;;;4996153;28;20022;-75
2024/02/19 02:01:36;;;;;;;34.58;4.75;;;9.50;99.90;;;;;;4998041;28;20022;-75
2024/02/19 02:04:03;;;;;;;43.08;4.95;;;9.40;99.90;;;;;;4982317;28;20033;-75
2024/02/19 02:06:28;;;;;;;46.47;4.65;;;9.50;99.90;;;;;;4994172;28;20030;-75
2024/02/19 02:08:55;;;;;;;33.42;3.45;;;9.50;99.90;;;;;;5001524;28;20392;-75
2024/02/19 02:11:21;;;;;;;37.50;4.20;;;9.40;99.90;;;;;;4996173;28;20025;-75
2024/02/19 02:13:46;;;;;;;30.63;4.10;;;9.50;99.90;;;;;;4993147;28;20110;-75
2024/02/19 02:16:22;;;;;;;25.67;3.13;;;9.40;99.90;;;;;;4998372;28;20156;-75
2024/02/19 02:18:48;;;;;;;33.03;4.10;;;9.40;99.90;;;;;;4983631;28;20089;-75
2024/02/19 02:21:16;;;;;;;31.83;3.67;;;9.40;99.90;;;;;;4994971;28;20110;-75
2024/02/19 02:23:41;;;;;;;29.77;3.45;;;9.40;99.90;;;;;;4993514;28;20026;-75
2024/02/19 02:26:09;;;;;;;34.92;3.72;;;9.40;99.90;;;;;;5000065;28;20047;-75
2024/02/19 02:28:35;;;;;;;31.48;3.63;;;9.30;99.90;;;;;;4999551;28;20025;-75
2024/02/19 02:31:00;;;;;;;24.05;2.97;;;9.30;99.90;;;;;;4992313;28;20022;-75
2024/02/19 02:33:26;;;;;;;31.70;3.92;;;9.30;99.90;;;;;;4980401;28;20397;-75
2024/02/19 02:35:52;;;;;;;26.20;3.92;;;9.30;99.90;;;;;;5002793;28;20387;-75
2024/02/19 02:38:18;;;;;;;32.58;3.15;;;9.30;99.90;;;;;;4995296;28;20472;-75
2024/02/19 02:40:44;;;;;;;26.17;3.30;;;9.30;99.90;;;;;;4992142;28;20042;-75
2024/02/19 02:43:10;;;;;;;29.17;3.47;;;9.30;99.90;;;;;;5000461;28;20315;-76
2024/02/19 02:45:36;;;;;;;38.88;4.30;;;9.30;99.90;;;;;;4972698;28;20041;-76
2024/02/19 02:48:02;;;;;;;28.08;4.05;;;9.30;99.90;;;;;;5000368;28;20117;-75
2024/02/19 02:50:28;;;;;;;32.72;3.85;;;9.30;99.90;;;;;;4986461;28;20373;-75
2024/02/19 02:52:54;;;;;;;31.77;3.58;;;9.20;99.90;;;;;;4986530;28;20495;-75
2024/02/19 02:55:20;;;;;;;28.65;3.78;;;9.20;99.90;;;;;;4999849;28;20023;-75
2024/02/19 02:57:45;;;;;;;26.00;3.63;;;9.20;99.90;;;;;;4997624;28;20109;-75
2024/02/19 03:00:12;;;;;;;36.53;4.13;;;9.20;99.90;;;;;;4992190;28;20476;-75
2024/02/19 03:02:37;;;;;;;41.72;4.40;;;9.20;99.90;;;;;;5000562;28;20128;-74
2024/02/19 03:05:03;;;;;;;31.17;3.60;;;9.10;99.90;;;;;;4986792;28;20472;-75
2024/02/19 03:07:29;;;;;;;35.08;3.92;;;9.20;99.90;;;;;;4993809;28;20079;-75
2024/02/19 03:09:56;;;;;;;23.38;3.38;;;9.20;99.90;;;;;;4993176;28;20435;-75
2024/02/19 03:12:22;;;;;;;38.03;4.03;;;9.20;99.90;;;;;;5005373;28;20057;-75
2024/02/19 03:14:48;;;;;;;27.83;3.33;;;9.20;99.90;;;;;;4976928;28;20535;-75
2024/02/19 03:17:14;;;;;;;38.78;4.60;;;9.20;99.90;;;;;;4999277;28;20444;-75
2024/02/19 03:19:43;;;;;;;37.92;4.05;;;9.20;99.90;;;;;;4977467;28;20053;-75
2024/02/19 03:22:10;;;;;;;38.97;3.67;;;9.20;99.90;;;;;;4974539;28;20041;-75
2024/02/19 03:24:36;;;;;;;36.15;3.70;;;9.20;99.90;;;;;;4980258;28;20137;-75
2024/02/19 03:27:04;;;;;;;30.52;4.13;;;9.20;99.90;;;;;;4992802;28;20100;-75
2024/02/19 03:29:29;;;;;;;35.25;4.00;;;9.20;99.90;;;;;;4972518;28;20094;-76
2024/02/19 03:31:56;;;;;;;33.35;3.90;;;9.20;99.90;;;;;;4997879;28;20538;-75
2024/02/19 03:34:22;;;;;;;35.80;4.35;;;9.20;99.90;;;;;;4992025;28;20422;-75
2024/02/19 03:37:04;;;;;;;36.55;4.95;;;9.20;99.90;;;;;;4998977;28;20101;-76
2024/02/19 03:39:30;;;;;;;37.83;4.32;;;9.20;99.90;;;;;;5003552;28;20526;-74
2024/02/19 03:41:56;;;;;;;44.80;5.35;;;9.20;99.90;;;;;;4996394;28;20029;-75
2024/02/19 03:44:22;;;;;;;29.38;4.47;;;9.20;99.90;;;;;;4992314;28;20058;-75
2024/02/19 03:46:48;;;;;;;39.33;4.55;;;9.20;99.90;;;;;;4991630;28;20372;-75
2024/02/19 03:49:14;;;;;;;29.05;4.43;;;9.20;99.90;;;;;;4995995;28;20109;-75
2024/02/19 03:51:39;;;;;;;30.92;3.90;;;9.20;99.90;;;;;;4981830;28;20499;-75
2024/02/19 03:54:06;;;;;;;34.05;3.90;;;9.20;99.90;;;;;;4977261;28;20076;-75
2024/02/19 03:56:31;;;;;;;32.00;4.05;;;9.30;99.90;;;;;;4991686;28;20507;-75
2024/02/19 03:58:57;;;;;;;35.50;4.55;;;9.20;99.90;;;;;;4981983;28;20026;-74
2024/02/19 04:01:23;;;;;;;34.35;4.35;;;9.20;99.90;;;;;;4998405;28;20018;-75
2024/02/19 04:03:48;;;;;;;30.60;3.95;;;9.20;99.90;;;;;;4992432;28;20580;-74
2024/02/19 04:06:14;;;;;;;20.10;3.13;;;9.20;99.90;;;;;;4999047;28;20554;-75
2024/02/19 04:08:40;;;;;;;25.70;3.90;;;9.20;99.90;;;;;;5002886;28;20034;-75
2024/02/19 04:11:05;;;;;;;24.65;4.38;;;9.20;99.90;;;;;;4985957;28;20014;-75
2024/02/19 04:13:31;;;;;;;39.67;4.10;;;9.20;99.90;;;;;;4999860;28;20113;-75
2024/02/19 04:15:57;;;;;;;32.10;4.43;;;9.20;99.90;;;;;;4991718;28;20048;-75
2024/02/19 04:18:22;;;;;;;41.17;5.07;;;9.20;99.90;;;;;;4993659;28;20037;-75
2024/02/19 04:20:48;;;;;;;43.90;5.07;;;9.20;99.90;;;;;;4998803;28;20697;-75
2024/02/19 04:23:14;;;;;;;22.02;4.07;;;9.20;99.90;;;;;;4979018;28;20090;-75
2024/02/19 04:25:40;;;;;;;28.15;4.82;;;9.20;99.90;;;;;;4991153;28;20084;-75
2024/02/19 04:28:06;;;;;;;35.08;5.07;;;9.20;99.90;;;;;;4997381;28;20026;-75
2024/02/19 04:30:31;;;;;;;44.28;5.50;;;9.20;99.90;;;;;;5002470;28;20395;-75
2024/02/19 04:32:57;;;;;;;31.90;4.82;;;9.20;99.90;;;;;;4995735;28;20025;-75
2024/02/19 04:35:23;;;;;;;30.55;5.07;;;9.20;99.90;;;;;;4996530;28;20029;-74
2024/02/19 04:37:48;;;;;;;25.58;4.15;;;9.20;99.90;;;;;;4993443;28;20096;-74
2024/02/19 04:40:14;;;;;;;30.88;4.60;;;9.20;99.90;;;;;;4999945;28;20030;-74
2024/02/19 04:42:40;;;;;;;31.70;4.50;;;9.20;99.90;;;;;;5005290;28;20057;-74
2024/02/19 04:45:06;;;;;;;27.85;4.55;;;9.20;99.90;;;;;;4992464;28;20333;-74
2024/02/19 04:47:31;;;;;;;30.02;4.20;;;9.20;99.90;;;;;;4989002;28;20089;-74
2024/02/19 04:49:57;;;;;;;40.05;4.57;;;9.20;99.90;;;;;;4991017;28;20473;-74
2024/02/19 04:52:23;;;;;;;38.58;4.03;;;9.20;99.90;;;;;;4982479;28;20026;-74
2024/02/19 04:54:49;;;;;;;27.70;4.47;;;9.20;99.90;;;;;;5002018;28;20033;-74
2024/02/19 04:57:15;;;;;;;25.63;3.80;;;9.20;99.90;;;;;;4995081;28;20021;-74
2024/02/19 04:59:40;;;;;;;39.10;4.70;;;9.20;99.90;;;;;;4996319;28;20034;-74
2024/02/19 05:02:06;;;;;;;34.58;4.57;;;9.20;99.90;;;;;;5002517;28;20026;-74
2024/02/19 05:04:32;;;;;;;29.40;4.95;;;9.10;99.90;;;;;;4999858;28;20032;-75
2024/02/19 05:06:58;;;;;;;39.65;4.90;;;9.10;99.90;;;;;;4994065;28;20030;-75
2024/02/19 05:09:24;;;;;;;31.35;4.28;;;9.20;99.90;;;;;;5000129;28;20102;-74
2024/02/19 05:11:49;;;;;;;35.88;4.88;;;9.10;99.90;;;;;;4984087;28;20053;-75
2024/02/19 05:14:15;;;;;;;32.70;3.63;;;9.20;99.90;;;;;;4995391;28;20029;-75
2024/02/19 05:16:41;;;;;;;34.60;5.03;;;9.20;99.90;;;;;;4995037;28;20050;-75
2024/02/19 05:19:06;;;;;;;41.42;5.13;;;9.20;99.90;;;;;;5002992;28;20017;-75
2024/02/19 05:21:33;;;;;;;33.55;4.20;;;9.20;99.90;;;;;;4998575;28;20053;-75
2024/02/19 05:24:00;;;;;;;29.17;4.45;;;9.10;99.90;;;;;;4976293;28;20536;-76
2024/02/19 05:26:26;;;;;;;31.17;4.28;;;9.20;99.90;;;;;;4999156;28;20058;-75
2024/02/19 05:28:55;;;;;;;34.00;5.15;;;9.10;99.90;;;;;;4988382;28;20057;-75
2024/02/19 05:31:40;;;;;;;33.00;5.13;;;9.10;99.90;;;;;;4995119;28;20033;-74
2024/02/19 05:34:06;;;;;;;25.17;4.38;;;9.10;99.90;;;;;;4994220;28;20499;-74
2024/02/19 05:36:33;;;;;;;30.35;4.25;;;9.10;99.90;;;;;;4982123;28;20025;-74
2024/02/19 05:38:59;;;;;;;39.63;5.07;;;9.10;99.90;;;;;;5003352;28;20057;-75
2024/02/19 05:41:25;;;;;;;27.58;4.53;;;9.10;99.90;;;;;;4997351;28;20006;-75
2024/02/19 05:43:51;;;;;;;36.30;4.00;;;9.10;99.90;;;;;;4997068;28;20026;-75
2024/02/19 05:46:19;;;;;;;33.85;4.15;;;9.10;99.90;;;;;;4991362;28;20022;-75
2024/02/19 05:48:45;;;;;;;31.17;4.40;;;9.10;99.90;;;;;;4994576;28;20185;-75
2024/02/19 05:51:11;;;;;;;26.70;4.20;;;9.10;99.90;;;;;;4994986;28;20790;-75
2024/02/19 05:53:37;;;;;;;24.88;4.85;;;9.10;99.90;;;;;;5001724;28;20018;-75
2024/02/19 05:56:04;;;;;;;33.00;5.35;;;9.10;99.90;;;;;;4997559;28;20026;-75
2024/02/19 05:58:32;;;;;;;22.95;4.53;;;9.20;99.90;;;;;;4993527;28;20076;-75
2024/02/19 06:00:58;;;;;;;29.08;5.43;;;9.10;99.90;;;;;;4997898;28;20030;-75
2024/02/19 06:03:25;;;;;;;31.13;5.07;;;9.10;99.90;;;;;;5001538;28;20176;-76
2024/02/19 06:05:51;;;;;;;34.88;5.85;;;9.10;99.90;;;;;;4994456;28;20033;-75
2024/02/19 06:08:17;;;;;;;28.65;6.13;;;9.20;99.90;;;;;;4976474;28;20142;-75
2024/02/19 06:10:46;;;;;;;40.13;6.57;;;9.20;99.90;;;;;;4994775;28;20068;-75
2024/02/19 06:13:12;;;;;;;27.08;5.82;;;9.20;99.90;;;;;;5000351;28;20022;-74
2024/02/19 06:15:38;;;;;;;36.55;7.47;;;9.20;99.90;;;;;;4990401;28;20039;-74
2024/02/19 06:18:05;;;;;;;33.20;6.35;;;9.20;99.90;;;;;;4974999;28;20026;-76
2024/02/19 06:20:30;;;;;;;31.63;6.75;;;9.20;99.90;;;;;;4972941;28;20035;-74
2024/02/19 06:22:56;;;;;;;33.63;6.40;;;9.20;99.90;;;;;;4978993;28;20144;-75
2024/02/19 06:25:22;;;;;;;28.70;6.75;;;9.20;99.90;;;;;;4980852;28;20037;-75
2024/02/19 06:27:50;;;;;;;28.17;6.65;;;9.20;99.90;;;;;;4931230;29;20032;-75
2024/02/19 06:30:18;;;;;;;32.70;8.30;;;9.20;99.90;;;;;;4972344;28;20355;-76
2024/02/19 06:32:44;;;;;;;32.03;6.10;;;9.20;99.90;;;;;;4973461;28;20025;-75
2024/02/19 06:35:10;;;;;;;37.13;7.95;;;9.20;99.90;;;;;;4959027;28;20022;-75
2024/02/19 06:37:36;;;;;;;30.73;6.40;;;9.20;99.90;;;;;;4960546;28;20096;-75
2024/02/19 06:40:02;;;;;;;27.65;6.13;;;9.20;99.90;;;;;;4978509;28;20054;-75
2024/02/19 06:42:27;;;;;;;28.92;6.03;;;9.20;99.90;;;;;;4966683;28;20022;-75
2024/02/19 06:44:53;;;;;;;22.77;6.68;;;9.20;99.90;;;;;;4975791;28;20539;-75
2024/02/19 06:47:19;;;;;;;35.28;6.63;;;9.20;99.90;;;;;;4975746;28;20026;-75
2024/02/19 06:49:45;;;;;;;32.10;6.15;;;9.20;99.90;;;;;;4972861;28;20124;-75
2024/02/19 06:52:10;;;;;;;26.48;5.38;;;9.20;99.90;;;;;;4961696;28;20035;-75
2024/02/19 06:54:36;;;;;;;23.80;5.80;;;9.20;99.90;;;;;;4962423;28;20026;-75
2024/02/19 06:57:02;;;;;;;29.52;5.40;;;9.20;99.90;;;;;;4966854;28;20038;-75
2024/02/19 06:59:30;;;;;;;35.05;5.80;;;9.20;99.90;;;;;;4970959;28;20026;-75
2024/02/19 07:01:56;;;;;;;23.80;5.10;;;9.20;99.90;;;;;;4951433;28;20031;-76
2024/02/19 07:04:23;;;;;;;20.45;3.97;;;9.20;99.90;;;;;;4980723;28;20029;-75
2024/02/19 07:06:49;;;;;;;18.95;4.65;;;9.20;99.90;;;;;;4974483;28;20515;-75
2024/02/19 07:09:17;;;;;;;24.40;4.13;;;9.20;99.90;;;;;;4959981;28;20026;-75
2024/02/19 07:11:43;;;;;;;27.05;4.30;;;9.30;99.90;;;;;;4953960;28;20027;-75
2024/02/19 07:14:08;;;;;;;24.85;4.70;;;9.30;99.90;;;;;;4966915;28;20038;-75
2024/02/19 07:16:34;;;;;;;25.02;4.05;;;9.30;99.90;;;;;;4980317;28;20568;-75
2024/02/19 07:19:00;;;;;;;26.60;4.85;;;9.30;99.90;;;;;;4984839;28;20026;-76
2024/02/19 07:21:25;;;;;;;18.10;4.32;;;9.30;99.90;;;;;;4982802;28;20129;-75
2024/02/19 07:23:51;;;;;;;19.65;4.00;;;9.30;99.90;;;;;;4977087;28;20370;-75
2024/02/19 07:26:17;;;;;;;24.98;4.30;;;9.30;99.90;;;;;;4979577;28;20365;-75
2024/02/19 07:28:43;;;;;;;21.30;3.80;;;9.30;99.90;;;;;;4955341;28;20342;-75
2024/02/19 07:31:09;;;;;;;19.35;5.03;;;9.30;99.90;;;;;;4971017;28;20023;-75
2024/02/19 07:33:34;;;;;;;17.92;3.80;;;9.30;99.90;;;;;;4965270;28;20026;-75
2024/02/19 07:36:00;;;;;;;25.92;4.20;;;9.40;99.90;;;;;;4954880;28;20033;-75
2024/02/19 07:38:26;;;;;;;15.32;3.70;;;9.40;99.90;;;;;;4954899;28;20137;-76
2024/02/19 07:40:51;;;;;;;25.10;5.15;;;9.40;99.90;;;;;;4976544;28;20019;-75
2024/02/19 07:43:17;;;;;;;22.75;4.53;;;9.40;99.90;;;;;;4982050;28;20396;-75
2024/02/19 07:45:43;;;;;;;19.85;4.13;;;9.40;99.90;;;;;;4970517;28;20034;-75
2024/02/19 07:48:09;;;;;;;23.45;3.85;;;9.50;99.90;;;;;;4966528;28;20023;-75
2024/02/19 07:50:35;;;;;;;22.88;4.53;;;9.50;99.90;;;;;;4977786;28;20015;-75
2024/02/19 07:53:01;;;;;;;25.77;4.45;;;9.50;99.90;;;;;;4942138;28;20508;-76
2024/02/19 07:55:27;;;;;;;16.92;3.35;;;9.50;99.90;;;;;;4970631;28;20019;-75
2024/02/19 07:57:53;;;;;;;31.92;4.65;;;9.50;99.90;;;;;;4970792;28;20489;-75
2024/02/19 08:00:21;;;;;;;19.10;4.72;;;9.60;99.90;;;;;;4954535;28;20076;-75
2024/02/19 08:02:50;;;;;;;23.23;4.53;;;9.60;99.90;;;;;;4948891;28;20031;-75
2024/02/19 08:05:16;;;;;;;21.30;4.35;;;9.60;99.90;;;;;;4962792;28;20062;-75
2024/02/19 08:07:42;;;;;;;14.43;3.80;;;9.60;99.90;;;;;;4970618;28;20570;-75
2024/02/19 08:10:08;;;;;;;17.77;3.90;;;9.60;99.90;;;;;;4959645;28;20027;-75
2024/02/19 08:12:34;;;;;;;20.50;4.45;;;9.60;99.90;;;;;;4981956;28;20030;-75
2024/02/19 08:15:00;;;;;;;28.83;5.07;;;9.70;99.90;;;;;;4972721;28;20129;-75
2024/02/19 08:17:26;;;;;;;17.63;4.40;;;9.70;99.90;;;;;;4974724;28;20220;-75
2024/02/19 08:19:52;;;;;;;17.88;4.60;;;9.80;99.90;;;;;;4979045;28;20033;-74
2024/02/19 08:22:17;;;;;;;16.85;5.07;;;9.80;99.90;;;;;;4978835;28;20117;-75
2024/02/19 08:24:43;;;;;;;22.98;5.50;;;9.80;99.90;;;;;;4989472;28;20030;-75
2024/02/19 08:27:09;;;;;;;14.35;3.75;;;9.90;99.90;;;;;;4976074;28;20034;-74
2024/02/19 08:29:35;;;;;;;19.27;4.20;;;9.90;99.90;;;;;;4972769;28;20543;-75
2024/02/19 08:32:01;;;;;;;25.42;4.32;;;9.90;99.90;;;;;;4983317;28;20125;-75
2024/02/19 08:34:27;;;;;;;18.80;4.88;;;10.00;99.90;;;;;;4992156;28;20022;-74
2024/02/19 08:36:53;;;;;;;15.73;5.20;;;10.00;99.90;;;;;;4982086;28;20034;-75
2024/02/19 08:39:19;;;;;;;17.05;4.07;;;10.00;99.90;;;;;;4992083;28;20034;-75
2024/02/19 08:41:44;;;;;;;16.05;4.85;;;10.00;99.90;;;;;;4989797;28;20535;-75
2024/02/19 08:44:10;;;;;;;19.38;4.68;;;10.10;99.90;;;;;;4982932;28;20451;-75
2024/02/19 08:46:36;;;;;;;21.65;4.25;;;10.10;99.90;;;;;;4985239;28;20022;-75
2024/02/19 08:49:02;;;;;;;19.08;3.95;;;10.10;99.90;;;;;;5005082;28;20022;-75
2024/02/19 08:51:29;;;;;;;17.15;4.80;;;10.20;99.90;;;;;;4996688;28;20388;-75
2024/02/19 08:53:55;;;;;;;20.63;4.28;;;10.20;99.90;;;;;;4979760;28;20030;-74
2024/02/19 08:56:20;;;;;;;19.25;4.40;;;10.20;99.90;;;;;;4993274;28;20033;-75
2024/02/19 08:58:46;;;;;;;17.27;4.07;;;10.20;99.90;;;;;;4975718;28;20107;-75
2024/02/19 09:01:14;;;;;;;15.82;4.53;;;10.20;99.90;;;;;;4993231;28;20073;-75
2024/02/19 09:03:40;;;;;;;16.10;3.90;;;10.20;99.90;;;;;;4985038;28;20022;-75
2024/02/19 09:06:06;;;;;;;17.35;4.18;;;10.30;99.90;;;;;;4997388;28;20038;-74
2024/02/19 09:08:33;;;;;;;15.35;4.03;;;10.30;99.90;;;;;;4976560;28;20030;-74
2024/02/19 09:10:58;;;;;;;17.50;4.65;;;10.30;99.90;;;;;;4996201;28;20104;-75
2024/02/19 09:13:24;;;;;;;22.27;6.00;;;10.30;99.90;;;;;;4981563;28;20547;-75
2024/02/19 09:15:50;;;;;;;22.35;4.80;;;10.30;99.90;;;;;;4978360;28;20050;-75
2024/02/19 09:18:16;;;;;;;17.52;4.72;;;10.40;99.90;;;;;;4988550;28;20070;-75
2024/02/19 09:20:41;;;;;;;15.10;4.57;;;10.40;99.90;;;;;;5000123;28;20028;-74
2024/02/19 09:23:07;;;;;;;16.40;4.78;;;10.40;99.90;;;;;;4984911;28;20407;-75
2024/02/19 09:25:33;;;;;;;16.90;3.70;;;10.40;99.90;;;;;;4972794;28;20046;-75
2024/02/19 09:27:59;;;;;;;15.52;4.50;;;10.40;99.90;;;;;;4987578;28;20031;-75
2024/02/19 09:30:25;;;;;;;14.77;4.95;;;10.40;99.90;;;;;;4988710;28;20106;-76
2024/02/19 09:32:50;;;;;;;15.68;4.88;;;10.40;99.90;;;;;;4987913;28;20105;-75
2024/02/19 09:35:16;;;;;;;17.50;4.90;;;10.40;99.90;;;;;;4988361;28;20162;-75
2024/02/19 09:37:43;;;;;;;19.83;5.22;;;10.40;99.90;;;;;;4987739;28;20022;-75
2024/02/19 09:40:12;;;;;;;12.20;4.43;;;10.50;99.90;;;;;;4988478;28;20034;-75
2024/02/19 09:42:38;;;;;;;19.00;5.07;;;10.50;99.90;;;;;;4987847;28;20033;-75
2024/02/19 09:45:08;;;;;;;18.45;5.20;;;10.50;99.90;;;;;;4974577;28;20026;-76
2024/02/19 09:47:36;;;;;;;17.42;5.03;;;10.50;99.90;;;;;;4987400;28;20040;-75
2024/02/19 09:50:03;;;;;;;17.00;4.43;;;10.50;99.90;;;;;;4986430;28;20025;-75
2024/02/19 09:52:30;;;;;;;17.48;5.18;;;10.60;99.90;;;;;;4971481;28;20021;-75
2024/02/19 09:54:56;;;;;;;16.50;5.18;;;10.60;99.90;;;;;;4987024;28;20029;-75
2024/02/19 09:57:22;;;;;;;17.23;4.93;;;10.60;99.90;;;;;;4993093;28;20026;-75
2024/02/19 09:59:48;;;;;;;17.90;5.20;;;10.60;99.90;;;;;;5001357;28;20022;-75
2024/02/19 10:02:18;;;;;;;15.05;5.03;;;10.60;99.90;;;;;;4974277;28;20506;-74
2024/02/19 10:04:46;;;;;;;18.83;5.43;;;10.70;99.90;;;;;;4979422;28;20043;-75
2024/02/19 10:07:15;;;;;;;18.00;5.53;;;10.70;99.90;;;;;;4975001;28;20503;-75
2024/02/19 10:09:41;;;;;;;18.33;5.90;;;10.70;99.90;;;;;;4985351;28;20488;-76
2024/02/19 10:12:07;;;;;;;19.30;6.13;;;10.70;99.90;;;;;;4986301;28;20027;-75
2024/02/19 10:14:33;;;;;;;19.67;6.13;;;10.80;99.90;;;;;;4978870;28;20042;-75
2024/02/19 10:17:00;;;;;;;17.58;5.80;;;10.80;99.90;;;;;;4972905;28;20034;-75
2024/02/19 10:19:26;;;;;;;15.05;6.22;;;10.80;99.90;;;;;;4998563;28;20022;-75
2024/02/19 10:21:52;;;;;;;19.40;6.80;;;10.80;99.90;;;;;;4963202;28;20538;-74
2024/02/19 10:24:18;;;;;;;19.42;6.32;;;10.90;99.90;;;;;;4990584;28;20021;-75
2024/02/19 10:26:45;;;;;;;15.95;6.18;;;10.90;99.90;;;;;;4985949;28;20026;-74
2024/02/19 10:29:11;;;;;;;20.02;6.55;;;10.90;99.90;;;;;;4977210;28;20113;-74
2024/02/19 10:31:37;;;;;;;17.25;6.95;;;10.90;99.90;;;;;;4971813;28;20093;-75
2024/02/19 10:34:03;;;;;;;20.85;6.75;;;10.90;99.90;;;;;;4953236;28;20109;-75
2024/02/19 10:36:29;;;;;;;16.08;6.80;;;10.90;99.90;;;;;;4992035;28;20639;-75
2024/02/19 10:38:55;;;;;;;16.25;6.90;;;10.90;99.90;;;;;;4984342;28;20030;-75
2024/02/19 10:41:23;;;;;;;20.20;7.28;;;10.90;99.90;;;;;;4986976;28;20041;-75
2024/02/19 10:43:51;;;;;;;21.02;7.70;;;10.90;99.90;;;;;;4996291;28;20154;-75
2024/02/19 10:46:21;;;;;;;19.45;7.13;;;10.90;99.90;;;;;;4989795;28;20027;-75
2024/02/19 10:48:49;;;;;;;20.30;6.70;;;10.90;99.90;;;;;;4970780;28;20030;-75
2024/02/19 10:51:17;;;;;;;15.88;6.15;;;10.90;99.90;;;;;;4977938;28;20027;-75
2024/02/19 10:53:44;;;;;;;19.77;7.00;;;10.90;99.90;;;;;;4961917;28;20022;-75
2024/02/19 10:56:17;;;;;;;18.10;6.72;;;10.90;99.90;;;;;;4973669;28;20081;-75
2024/02/19 10:58:57;;;;;;;15.27;6.32;;;10.90;99.90;;;;;;4964793;28;20447;-75
2024/02/19 11:01:46;;;;;;;19.63;6.82;;;11.00;99.90;;;;;;4985582;28;20030;-75
2024/02/19 11:04:15;;;;;;;15.00;6.70;;;11.00;99.90;;;;;;4989393;28;20034;-75
2024/02/19 11:07:03;;;;;;;21.80;7.82;;;11.00;99.90;;;;;;4993397;28;20340;-75
2024/02/19 11:09:33;;;;;;;16.23;6.45;;;11.00;99.90;;;;;;4984804;28;20082;-75
2024/02/19 11:12:05;;;;;;;18.33;6.60;;;10.90;99.90;;;;;;4981385;28;20072;-74
2024/02/19 11:14:34;;;;;;;20.45;6.10;;;10.90;99.90;;;;;;4981300;28;20129;-74
2024/02/19 11:17:01;;;;;;;20.08;6.93;;;10.90;99.90;;;;;;4981999;28;20554;-74
2024/02/19 11:19:28;;;;;;;18.67;6.93;;;10.90;99.90;;;;;;4966632;28;20435;-74
2024/02/19 11:22:09;;;;;;;19.25;6.40;;;10.90;99.90;;;;;;4970546;28;20495;-74
2024/02/19 11:24:36;;;;;;;19.38;6.50;;;11.00;99.90;;;;;;4969368;28;20149;-74
2024/02/19 11:27:06;;;;;;;16.83;6.80;;;11.00;99.90;;;;;;4966541;28;20038;-75
2024/02/19 11:29:33;;;;;;;18.60;6.22;;;10.90;99.90;;;;;;4973078;28;20037;-75
2024/02/19 11:32:00;;;;;;;20.10;6.30;;;11.00;99.90;;;;;;4966640;28;20088;-75
2024/02/19 11:34:26;;;;;;;22.60;6.53;;;11.00;99.90;;;;;;4988159;28;20105;-75
2024/02/19 11:36:52;;;;;;;18.42;6.03;;;11.00;99.90;;;;;;4968736;28;20523;-74
2024/02/19 11:39:17;;;;;;;15.18;6.05;;;11.00;99.90;;;;;;4990234;28;20027;-74
2024/02/19 11:41:46;;;;;;;19.10;6.20;;;11.00;99.90;;;;;;4988025;28;20052;-73
2024/02/19 11:44:14;;;;;;;22.02;6.60;;;11.00;99.90;;;;;;4991120;28;20034;-74
2024/02/19 11:46:41;;;;;;;14.80;5.40;;;11.00;99.90;;;;;;4994736;28;20488;-74
2024/02/19 11:49:08;;;;;;;14.43;5.07;;;11.00;99.90;;;;;;4982907;28;20041;-74
2024/02/19 11:51:37;;;;;;;12.05;5.55;;;11.00;99.90;;;;;;4988927;28;20490;-74
2024/02/19 11:54:04;;;;;;;19.67;6.20;;;11.00;99.90;;;;;;4976403;28;20484;-75
2024/02/19 11:56:43;;;;;;;19.70;6.47;;;11.00;99.90;;;;;;4980858;28;20493;-74
2024/02/19 11:59:10;;;;;;;13.82;5.90;;;11.00;99.90;;;;;;4987894;28;20128;-74
2024/02/19 12:01:37;;;;;;;16.95;6.45;;;11.00;99.90;;;;;;4971549;28;20030;-74
2024/02/19 12:04:05;;;;;;;17.45;6.72;;;11.00;99.90;;;;;;4985280;28;20022;-75
2024/02/19 12:06:38;;;;;;;16.85;6.75;;;11.10;99.90;;;;;;4988582;28;20264;-74
2024/02/19 12:09:05;;;;;;;18.38;5.43;;;11.10;99.90;;;;;;4986085;28;20488;-74
2024/02/19 12:11:32;;;;;;;16.17;6.18;;;11.10;99.90;;;;;;4970441;28;20114;-74
2024/02/19 12:13:58;;;;;;;17.83;6.63;;;11.10;99.90;;;;;;4976659;28;20077;-75
2024/02/19 12:16:25;;;;;;;16.15;6.00;;;11.10;99.90;;;;;;4993510;28;20050;-74
2024/02/19 12:18:51;;;;;;;13.85;5.97;;;11.10;99.90;;;;;;5003663;28;20054;-74
2024/02/19 12:21:17;;;;;;;16.92;6.32;;;11.10;99.90;;;;;;5006948;28;20026;-75
2024/02/19 12:23:46;;;;;;;17.25;5.85;;;11.10;99.90;;;;;;4986203;28;20084;-74
2024/02/19 12:26:11;;;;;;;13.98;5.75;;;11.10;99.90;;;;;;4983216;28;20022;-75
2024/02/19 12:28:37;;;;;;;13.02;5.40;;;11.10;99.90;;;;;;4994495;28;20045;-75
2024/02/19 12:31:03;;;;;;;16.05;5.60;;;11.10;99.90;;;;;;4973308;28;20042;-75
2024/02/19 12:33:29;;;;;;;17.75;5.28;;;11.10;99.90;;;;;;4981364;28;20505;-74
2024/02/19 12:35:55;;;;;;;12.77;5.28;;;11.10;99.90;;;;;;4989708;28;20570;-74
2024/02/19 12:38:20;;;;;;;19.23;5.28;;;11.10;99.90;;;;;;4992008;28;20038;-74
2024/02/19 12:40:46;;;;;;;14.00;5.78;;;11.10;99.90;;;;;;5001496;28;20026;-73